createdAt,value
2017-10-23T00:01:49.100Z,64.80
2017-10-23T00:04:17.796Z,64.10
2017-10-23T00:06:46.505Z,64.00
2017-10-23T00:09:16.091Z,64.70
2017-10-23T00:11:51.863Z,64.00
2017-10-23T00:14:21.321Z,64.40
2017-10-23T00:16:50.003Z,64.40
2017-10-23T00:19:18.696Z,64.60
2017-10-23T00:21:47.392Z,64.30
2017-10-23T00:24:16.093Z,64.10
2017-10-23T00:26:45.417Z,64.20
2017-10-23T00:29:14.880Z,64.30
2017-10-23T00:31:43.581Z,64.20
2017-10-23T00:34:12.263Z,64.20
2017-10-23T00:36:41.033Z,64.40
2017-10-23T00:39:09.741Z,64.60
2017-10-23T00:41:38.452Z,64.70
2017-10-23T00:44:10.142Z,64.70
2017-10-23T00:46:38.842Z,64.50
2017-10-23T00:49:13.862Z,64.30
2017-10-23T00:51:42.544Z,64.00
2017-10-23T00:54:11.233Z,64.10
2017-10-23T00:56:39.934Z,63.80
2017-10-23T00:59:08.612Z,63.80
2017-10-23T01:01:52.192Z,63.80
2017-10-23T01:04:21.654Z,63.90
2017-10-23T01:06:56.424Z,63.80
2017-10-23T01:09:25.873Z,64.00
2017-10-23T01:11:54.568Z,63.90
2017-10-23T01:14:30.321Z,63.60
2017-10-23T01:16:59.980Z,63.60
2017-10-23T01:19:29.479Z,63.90
2017-10-23T01:22:00.919Z,63.90
2017-10-23T01:24:30.377Z,64.20
2017-10-23T01:26:59.068Z,64.00
2017-10-23T01:29:33.979Z,64.10
2017-10-23T01:32:09.080Z,64.00
2017-10-23T01:34:37.770Z,64.20
2017-10-23T01:37:07.210Z,64.70
2017-10-23T01:39:35.923Z,64.70
2017-10-23T01:42:04.603Z,64.80
2017-10-23T01:44:40.976Z,64.40
2017-10-23T01:47:09.663Z,64.40
2017-10-23T01:49:38.356Z,64.40
2017-10-23T01:52:07.055Z,64.60
2017-10-23T01:54:36.752Z,64.80
2017-10-23T01:57:05.463Z,65.00
2017-10-23T01:59:34.951Z,64.90
2017-10-23T02:02:03.643Z,64.90
2017-10-23T02:04:33.105Z,64.20
2017-10-23T02:07:01.784Z,64.20
2017-10-23T02:09:30.502Z,63.60
2017-10-23T02:11:59.180Z,64.30
2017-10-23T02:14:33.989Z,64.90
2017-10-23T02:17:02.674Z,64.70
2017-10-23T02:19:31.356Z,64.60
2017-10-23T02:22:00.072Z,64.10
2017-10-23T02:24:28.756Z,64.30
2017-10-23T02:26:57.456Z,64.20
2017-10-23T02:29:32.255Z,64.60
2017-10-23T02:32:00.984Z,64.60
2017-10-23T02:34:30.442Z,64.10
2017-10-23T02:37:00.025Z,64.10
2017-10-23T02:39:28.798Z,64.10
2017-10-23T02:41:58.447Z,64.50
2017-10-23T02:44:27.167Z,64.50
2017-10-23T02:46:56.634Z,64.40
2017-10-23T02:49:26.947Z,64.40
2017-10-23T02:51:55.635Z,64.20
2017-10-23T02:54:24.323Z,64.40
2017-10-23T02:56:53.019Z,64.70
2017-10-23T02:59:21.705Z,64.80
2017-10-23T03:01:50.404Z,64.40
2017-10-23T03:04:19.099Z,64.10
2017-10-23T03:06:48.555Z,63.50
2017-10-23T03:09:23.451Z,63.50
2017-10-23T03:11:52.910Z,63.80
2017-10-23T03:14:23.435Z,63.60
2017-10-23T03:16:56.119Z,63.60
2017-10-23T03:19:24.812Z,63.70
2017-10-23T03:21:53.501Z,63.50
2017-10-23T03:24:22.209Z,63.60
2017-10-23T03:26:51.656Z,64.10
2017-10-23T03:29:26.753Z,63.30
2017-10-23T03:32:02.469Z,63.20
2017-10-23T03:34:31.157Z,63.20
2017-10-23T03:36:59.843Z,63.30
2017-10-23T03:39:28.534Z,63.20
2017-10-23T03:42:05.255Z,63.30
2017-10-23T03:44:33.976Z,63.20
2017-10-23T03:47:02.675Z,63.40
2017-10-23T03:49:37.556Z,63.30
2017-10-23T03:52:07.262Z,63.00
2017-10-23T03:54:35.953Z,62.70
2017-10-23T03:57:04.641Z,62.70
2017-10-23T03:59:33.332Z,62.80
2017-10-23T04:02:02.021Z,62.80
2017-10-23T04:04:41.736Z,63.10
2017-10-23T04:07:10.449Z,63.00
2017-10-23T04:09:39.140Z,63.00
2017-10-23T04:12:27.112Z,63.20
2017-10-23T04:14:56.573Z,63.20
2017-10-23T04:17:25.268Z,63.20
2017-10-23T04:19:53.970Z,63.50
2017-10-23T04:22:22.671Z,63.80
2017-10-23T04:24:51.367Z,63.60
2017-10-23T04:27:20.825Z,63.10
2017-10-23T04:29:52.942Z,63.10
2017-10-23T04:32:22.417Z,62.60
2017-10-23T04:34:53.048Z,62.60
2017-10-23T04:37:21.748Z,62.70
2017-10-23T04:39:52.380Z,62.70
2017-10-23T04:42:27.300Z,62.70
2017-10-23T04:44:56.875Z,62.90
2017-10-23T04:47:26.437Z,63.10
2017-10-23T04:49:55.895Z,62.50
2017-10-23T04:52:25.356Z,62.50
2017-10-23T04:54:54.043Z,62.50
2017-10-23T04:57:22.756Z,62.70
2017-10-23T04:59:57.755Z,62.90
2017-10-23T05:02:26.476Z,62.60
2017-10-23T05:04:55.945Z,62.50
2017-10-23T05:07:24.639Z,62.50
2017-10-23T05:09:53.343Z,62.70
2017-10-23T05:12:22.040Z,62.40
2017-10-23T05:14:50.816Z,62.60
2017-10-23T05:17:19.661Z,62.80
2017-10-23T05:19:48.372Z,62.90
2017-10-23T05:22:17.084Z,62.30
2017-10-23T05:24:45.800Z,62.40
2017-10-23T05:27:14.498Z,62.00
2017-10-23T05:29:43.200Z,62.60
2017-10-23T05:32:11.917Z,62.20
2017-10-23T05:34:40.641Z,62.30
2017-10-23T05:37:17.271Z,62.10
2017-10-23T05:39:45.970Z,62.20
2017-10-23T05:42:16.480Z,62.30
2017-10-23T05:44:47.141Z,62.30
2017-10-23T05:47:16.618Z,62.90
2017-10-23T05:49:51.406Z,62.90
2017-10-23T05:52:20.147Z,63.10
2017-10-23T05:54:50.464Z,63.40
2017-10-23T05:57:26.180Z,62.80
2017-10-23T05:59:54.883Z,62.80
2017-10-23T06:02:32.881Z,63.20
2017-10-23T06:05:02.585Z,63.70
2017-10-23T06:07:31.274Z,64.00
2017-10-23T06:10:06.224Z,64.30
2017-10-23T06:12:34.924Z,63.90
2017-10-23T06:15:04.503Z,63.90
2017-10-23T06:17:33.196Z,63.00
2017-10-23T06:20:01.893Z,63.10
2017-10-23T06:22:30.591Z,62.70
2017-10-23T06:24:59.277Z,62.90
2017-10-23T06:27:34.143Z,62.50
2017-10-23T06:30:09.128Z,62.60
2017-10-23T06:32:37.860Z,62.40
2017-10-23T06:35:19.146Z,62.80
2017-10-23T06:37:47.883Z,62.50
2017-10-23T06:40:16.562Z,63.00
2017-10-23T06:42:45.481Z,63.10
2017-10-23T06:45:14.923Z,63.40
2017-10-23T06:47:44.379Z,63.40
2017-10-23T06:50:13.084Z,63.40
2017-10-23T06:52:42.840Z,63.30
2017-10-23T06:55:12.437Z,62.90
2017-10-23T06:57:42.952Z,62.90
2017-10-23T07:00:12.432Z,62.40
2017-10-23T07:02:41.116Z,62.20
2017-10-23T07:05:16.972Z,62.70
2017-10-23T07:07:51.823Z,62.50
2017-10-23T07:10:20.712Z,62.20
2017-10-23T07:12:50.241Z,61.70
2017-10-23T07:15:19.064Z,61.70
2017-10-23T07:17:47.754Z,60.70
2017-10-23T07:20:16.431Z,61.00
2017-10-23T07:22:45.116Z,61.40
2017-10-23T07:25:13.839Z,61.40
2017-10-23T07:27:42.577Z,61.70
2017-10-23T07:30:11.252Z,61.40
2017-10-23T07:32:46.478Z,61.00
2017-10-23T07:35:16.105Z,60.50
2017-10-23T07:37:44.784Z,60.10
2017-10-23T07:40:19.808Z,58.80
2017-10-23T07:42:48.524Z,58.90
2017-10-23T07:45:23.432Z,57.80
2017-10-23T07:47:52.124Z,57.60
2017-10-23T07:50:20.828Z,57.80
2017-10-23T07:52:54.583Z,57.70
2017-10-23T07:55:24.121Z,57.90
2017-10-23T07:57:59.080Z,57.80
2017-10-23T08:00:27.853Z,58.60
2017-10-23T08:02:56.534Z,58.90
2017-10-23T08:05:25.208Z,59.00
2017-10-23T08:07:54.053Z,58.30
2017-10-23T08:10:22.753Z,58.70
2017-10-23T08:12:57.591Z,57.00
2017-10-23T08:15:26.472Z,57.00
2017-10-23T08:17:55.927Z,54.70
2017-10-23T08:20:30.840Z,54.60
2017-10-23T08:23:05.729Z,53.30
2017-10-23T08:25:40.585Z,53.90
2017-10-23T08:28:09.272Z,53.80
2017-10-23T08:30:38.181Z,54.40
2017-10-23T08:33:13.211Z,55.50
2017-10-23T08:35:43.575Z,55.20
2017-10-23T08:38:12.374Z,55.10
2017-10-23T08:40:42.056Z,55.30
2017-10-23T08:43:10.740Z,56.30
2017-10-23T08:45:39.725Z,56.60
2017-10-23T08:48:08.409Z,57.60
2017-10-23T08:50:38.740Z,58.40
2017-10-23T08:53:13.869Z,58.30
2017-10-23T08:55:42.718Z,59.30
2017-10-23T08:58:12.352Z,60.10
2017-10-23T09:00:47.227Z,60.50
2017-10-23T09:03:15.975Z,59.60
2017-10-23T09:05:44.801Z,59.50
2017-10-23T09:08:13.480Z,58.90
2017-10-23T09:10:42.167Z,58.20
2017-10-23T09:13:10.860Z,56.60
2017-10-23T09:15:41.273Z,56.70
2017-10-23T09:18:10.756Z,56.70
2017-10-23T09:20:39.445Z,56.60
2017-10-23T09:23:08.200Z,56.60
2017-10-23T09:25:36.879Z,55.90
2017-10-23T09:28:05.641Z,55.90
2017-10-23T09:30:40.608Z,55.80
2017-10-23T09:33:15.546Z,54.80
2017-10-23T09:35:44.327Z,53.70
2017-10-23T09:38:13.890Z,50.30
2017-10-23T09:40:42.781Z,50.20
2017-10-23T09:43:11.448Z,49.10
2017-10-23T09:45:40.144Z,50.00
2017-10-23T09:48:15.685Z,50.50
2017-10-23T09:50:50.665Z,50.50
2017-10-23T09:53:20.207Z,48.70
2017-10-23T09:55:48.884Z,48.70
2017-10-23T09:58:17.624Z,49.00
2017-10-23T10:00:47.165Z,50.10
2017-10-23T10:03:15.855Z,51.10
2017-10-23T10:05:44.539Z,51.30
2017-10-23T10:08:13.248Z,51.90
2017-10-23T10:10:41.945Z,52.80
2017-10-23T10:13:16.848Z,52.90
2017-10-23T10:15:46.427Z,52.80
2017-10-23T10:18:15.136Z,53.70
2017-10-23T10:20:43.823Z,53.40
2017-10-23T10:23:13.091Z,54.00
2017-10-23T10:25:42.543Z,54.30
2017-10-23T10:28:11.306Z,54.20
2017-10-23T10:30:46.251Z,54.60
2017-10-23T10:33:14.935Z,55.10
2017-10-23T10:35:43.623Z,54.80
2017-10-23T10:38:18.624Z,54.80
2017-10-23T10:40:47.352Z,55.20
2017-10-23T10:43:16.031Z,55.10
2017-10-23T10:45:44.786Z,55.30
2017-10-23T10:48:20.544Z,55.00
2017-10-23T10:50:49.989Z,54.10
2017-10-23T10:53:18.688Z,54.00
2017-10-23T10:55:47.395Z,50.70
2017-10-23T10:58:17.253Z,47.80
2017-10-23T11:00:55.233Z,43.50
2017-10-23T11:03:24.062Z,39.50
2017-10-23T11:05:52.762Z,36.50
2017-10-23T11:08:23.121Z,37.60
2017-10-23T11:10:52.603Z,39.70
2017-10-23T11:13:23.659Z,39.70
2017-10-23T11:15:59.514Z,42.90
2017-10-23T11:18:28.299Z,42.80
2017-10-23T11:21:03.248Z,44.30
2017-10-23T11:23:32.904Z,46.30
2017-10-23T11:26:07.920Z,46.80
2017-10-23T11:28:42.980Z,48.40
2017-10-23T11:31:17.934Z,49.40
2017-10-23T11:33:46.651Z,50.70
2017-10-23T11:36:22.429Z,51.60
2017-10-23T11:38:51.175Z,51.60
2017-10-23T11:41:19.881Z,51.60
2017-10-23T11:43:54.828Z,51.50
2017-10-23T11:46:30.696Z,51.50
2017-10-23T11:48:59.374Z,51.10
2017-10-23T11:51:28.066Z,50.90
2017-10-23T11:53:56.754Z,51.20
2017-10-23T11:56:25.444Z,50.90
2017-10-23T11:58:56.035Z,51.40
2017-10-23T12:01:24.752Z,51.60
2017-10-23T12:03:59.740Z,52.00
2017-10-23T12:06:29.372Z,51.80
2017-10-23T12:08:59.725Z,51.90
2017-10-23T12:11:34.678Z,51.90
2017-10-23T12:14:04.247Z,52.30
2017-10-23T12:16:32.946Z,52.70
2017-10-23T12:19:08.653Z,54.00
2017-10-23T12:21:37.352Z,54.00
2017-10-23T12:24:06.042Z,54.40
2017-10-23T12:26:34.722Z,54.00
2017-10-23T12:29:10.573Z,53.50
2017-10-23T12:31:45.512Z,53.50
2017-10-23T12:34:14.322Z,53.80
2017-10-23T12:36:49.207Z,52.70
2017-10-23T12:39:18.657Z,51.40
2017-10-23T12:41:55.164Z,51.90
2017-10-23T12:44:30.201Z,51.80
2017-10-23T12:46:59.670Z,51.20
2017-10-23T12:49:35.479Z,51.20
2017-10-23T12:52:04.184Z,51.50
2017-10-23T12:54:32.951Z,52.00
2017-10-23T12:57:01.607Z,52.00
2017-10-23T12:59:30.287Z,51.10
2017-10-23T13:01:58.980Z,50.40
2017-10-23T13:04:33.881Z,50.90
2017-10-23T13:07:08.896Z,51.80
2017-10-23T13:09:37.675Z,50.70
2017-10-23T13:12:12.628Z,50.70
2017-10-23T13:14:46.216Z,50.90
2017-10-23T13:17:21.060Z,50.70
2017-10-23T13:19:53.888Z,49.80
2017-10-23T13:22:23.365Z,49.30
2017-10-23T13:24:52.092Z,49.10
2017-10-23T13:27:20.876Z,49.60
2017-10-23T13:29:55.830Z,48.90
2017-10-23T13:32:24.588Z,49.30
2017-10-23T13:34:59.432Z,49.50
2017-10-23T13:37:28.203Z,50.00
2017-10-23T13:39:57.771Z,49.80
2017-10-23T13:42:26.661Z,50.40
2017-10-23T13:45:01.533Z,50.60
2017-10-23T13:47:36.340Z,51.20
2017-10-23T13:50:05.053Z,52.60
2017-10-23T13:52:39.897Z,53.70
2017-10-23T13:55:08.648Z,54.10
2017-10-23T13:57:43.536Z,54.70
2017-10-23T14:00:18.603Z,55.20
2017-10-23T14:02:47.388Z,55.80
2017-10-23T14:05:16.250Z,55.70
2017-10-23T14:07:45.348Z,55.50
2017-10-23T14:10:14.038Z,54.50
2017-10-23T14:12:42.734Z,54.30
2017-10-23T14:15:11.552Z,54.30
2017-10-23T14:17:40.281Z,48.20
2017-10-23T14:20:08.980Z,45.90
2017-10-23T14:22:37.671Z,44.70
2017-10-23T14:25:06.431Z,45.00
2017-10-23T14:27:41.512Z,45.70
2017-10-23T14:30:16.519Z,45.80
2017-10-23T14:32:51.292Z,46.00
2017-10-23T14:35:19.975Z,46.50
2017-10-23T14:37:48.655Z,46.70
2017-10-23T14:40:17.561Z,46.60
2017-10-23T14:42:47.283Z,46.00
2017-10-23T14:45:16.720Z,47.80
2017-10-23T14:47:45.416Z,47.70
2017-10-23T14:50:14.110Z,48.80
2017-10-23T14:52:43.850Z,51.70
2017-10-23T14:55:12.548Z,51.80
2017-10-23T14:57:41.515Z,53.60
2017-10-23T15:00:16.426Z,54.20
2017-10-23T15:02:51.248Z,55.10
2017-10-23T15:05:19.951Z,55.70
2017-10-23T15:07:48.646Z,56.50
2017-10-23T15:10:17.320Z,57.20
2017-10-23T15:12:46.119Z,57.40
2017-10-23T15:15:16.737Z,57.90
2017-10-23T15:17:45.534Z,57.50
2017-10-23T15:20:20.410Z,57.60
2017-10-23T15:22:49.095Z,58.00
2017-10-23T15:25:19.412Z,58.40
2017-10-23T15:28:00.316Z,58.30
2017-10-23T15:30:35.237Z,58.50
2017-10-23T15:33:09.025Z,58.20
2017-10-23T15:35:37.720Z,58.40
2017-10-23T15:38:12.683Z,58.40
2017-10-23T15:40:42.135Z,58.20
2017-10-23T15:43:17.125Z,58.20
2017-10-23T15:45:46.648Z,58.40
2017-10-23T15:48:21.709Z,58.30
2017-10-23T15:50:56.752Z,58.80
2017-10-23T15:53:26.482Z,59.00
2017-10-23T15:55:55.213Z,59.10
2017-10-23T15:58:24.651Z,61.00
2017-10-23T16:00:55.047Z,60.70
2017-10-23T16:03:24.573Z,61.30
2017-10-23T16:05:53.296Z,61.30
2017-10-23T16:08:22.099Z,61.50
2017-10-23T16:10:57.036Z,61.90
2017-10-23T16:13:25.729Z,62.30
2017-10-23T16:16:00.568Z,62.60
2017-10-23T16:18:29.252Z,62.70
2017-10-23T16:21:04.121Z,62.60
2017-10-23T16:23:32.804Z,62.60
2017-10-23T16:26:07.721Z,62.50
2017-10-23T16:28:36.546Z,62.70
2017-10-23T16:31:11.348Z,62.70
2017-10-23T16:33:40.058Z,62.90
2017-10-23T16:36:08.740Z,62.80
2017-10-23T16:38:38.211Z,63.30
2017-10-23T16:41:17.653Z,62.80
2017-10-23T16:43:46.616Z,62.90
2017-10-23T16:46:15.309Z,62.90
2017-10-23T16:48:44.081Z,62.90
2017-10-23T16:51:12.827Z,63.00
2017-10-23T16:53:41.531Z,62.70
2017-10-23T16:56:16.976Z,62.50
2017-10-23T16:58:46.447Z,62.70
2017-10-23T17:01:15.266Z,62.60
2017-10-23T17:03:44.871Z,62.90
2017-10-23T17:06:19.732Z,62.80
2017-10-23T17:08:48.507Z,63.00
2017-10-23T17:11:17.392Z,63.00
2017-10-23T17:13:46.847Z,62.90
2017-10-23T17:16:15.746Z,62.90
2017-10-23T17:18:44.425Z,62.80
2017-10-23T17:21:13.963Z,62.60
2017-10-23T17:23:45.424Z,62.80
2017-10-23T17:26:21.167Z,62.70
2017-10-23T17:28:50.632Z,62.60
2017-10-23T17:31:21.280Z,62.60
2017-10-23T17:33:51.995Z,62.70
2017-10-23T17:36:20.691Z,62.70
2017-10-23T17:38:49.384Z,62.80
2017-10-23T17:41:26.598Z,62.70
2017-10-23T17:43:57.098Z,62.60
2017-10-23T17:46:25.882Z,62.50
2017-10-23T17:48:54.575Z,62.70
2017-10-23T17:51:30.403Z,62.60
